sensor_id;sensor_type;location;lat;lon;timestamp;noise_LAeq;noise_LA_min;noise_LA_max;noise_LA01;noise_LA95
68279;Laerm;55108;51.790;10.960;2023-02-13T00:01:25;34.75;25.81;50.74;;
68279;Laerm;55108;51.790;10.960;2023-02-13T00:03:50;59.68;26.48;78.24;;
68279;Laerm;55108;51.790;10.960;2023-02-13T00:06:15;27.68;26.19;33.60;;
68279;Laerm;55108;51.790;10.960;2023-02-13T00:08:41;33.36;26.36;47.76;;
68279;Laerm;55108;51.790;10.960;2023-02-13T00:11:06;54.52;26.10;74.41;;
68279;Laerm;55108;51.790;10.960;2023-02-13T00:13:32;62.06;26.19;80.50;;
68279;Laerm;55108;51.790;10.960;2023-02-13T00:15:58;36.90;25.97;55.34;;
68279;Laerm;55108;51.790;10.960;2023-02-13T00:18:23;57.00;26.46;75.86;;
68279;Laerm;55108;51.790;10.960;2023-02-13T00:21:01;28.71;26.38;41.64;;
68279;Laerm;55108;51.790;10.960;2023-02-13T00:23:28;28.56;26.38;42.00;;
68279;Laerm;55108;51.790;10.960;2023-02-13T00:25:53;28.15;26.38;38.79;;
68279;Laerm;55108;51.790;10.960;2023-02-13T00:28:18;32.05;26.52;44.39;;
68279;Laerm;55108;51.790;10.960;2023-02-13T00:30:43;52.14;27.40;69.22;;
68279;Laerm;55108;51.790;10.960;2023-02-13T00:33:08;60.70;25.94;77.41;;
68279;Laerm;55108;51.790;10.960;2023-02-13T00:35:33;28.41;25.95;40.49;;
68279;Laerm;55108;51.790;10.960;2023-02-13T00:37:58;29.62;26.25;40.27;;
68279;Laerm;55108;51.790;10.960;2023-02-13T00:40:24;30.68;26.13;45.87;;
68279;Laerm;55108;51.790;10.960;2023-02-13T00:42:49;28.96;26.22;40.59;;
68279;Laerm;55108;51.790;10.960;2023-02-13T00:45:14;31.01;26.30;41.92;;
68279;Laerm;55108;51.790;10.960;2023-02-13T00:47:39;57.59;26.46;75.48;;
68279;Laerm;55108;51.790;10.960;2023-02-13T00:50:04;28.59;26.65;37.57;;
68279;Laerm;55108;51.790;10.960;2023-02-13T00:52:30;28.08;26.26;40.42;;
68279;Laerm;55108;51.790;10.960;2023-02-13T00:54:55;29.05;26.34;49.43;;
68279;Laerm;55108;51.790;10.960;2023-02-13T00:57:20;28.71;26.41;40.58;;
68279;Laerm;55108;51.790;10.960;2023-02-13T00:59:45;52.49;26.44;70.96;;
68279;Laerm;55108;51.790;10.960;2023-02-13T01:02:10;44.36;26.51;67.24;;
68279;Laerm;55108;51.790;10.960;2023-02-13T01:04:35;27.82;25.92;34.36;;
68279;Laerm;55108;51.790;10.960;2023-02-13T01:07:00;29.99;26.21;39.63;;
68279;Laerm;55108;51.790;10.960;2023-02-13T01:09:26;30.39;26.76;39.19;;
68279;Laerm;55108;51.790;10.960;2023-02-13T01:11:51;30.76;26.33;46.33;;
68279;Laerm;55108;51.790;10.960;2023-02-13T01:14:16;28.02;26.13;40.39;;
68279;Laerm;55108;51.790;10.960;2023-02-13T01:16:41;28.81;26.30;44.28;;
68279;Laerm;55108;51.790;10.960;2023-02-13T01:19:06;43.19;26.36;62.10;;
68279;Laerm;55108;51.790;10.960;2023-02-13T01:21:31;50.90;26.37;70.99;;
68279;Laerm;55108;51.790;10.960;2023-02-13T01:23:56;57.09;26.05;75.87;;
68279;Laerm;55108;51.790;10.960;2023-02-13T01:26:22;28.00;26.16;37.45;;
68279;Laerm;55108;51.790;10.960;2023-02-13T01:28:50;28.41;25.79;43.67;;
68279;Laerm;55108;51.790;10.960;2023-02-13T01:31:15;27.59;25.99;33.83;;
68279;Laerm;55108;51.790;10.960;2023-02-13T01:33:40;61.84;27.63;77.79;;
68279;Laerm;55108;51.790;10.960;2023-02-13T01:36:06;28.37;26.44;33.86;;
68279;Laerm;55108;51.790;10.960;2023-02-13T01:38:32;30.59;26.54;44.16;;
68279;Laerm;55108;51.790;10.960;2023-02-13T01:40:57;63.25;27.08;80.38;;
68279;Laerm;55108;51.790;10.960;2023-02-13T01:43:22;29.43;26.37;39.45;;
68279;Laerm;55108;51.790;10.960;2023-02-13T01:45:49;29.83;26.09;39.30;;
68279;Laerm;55108;51.790;10.960;2023-02-13T01:48:17;27.37;25.95;32.22;;
68279;Laerm;55108;51.790;10.960;2023-02-13T01:50:44;61.16;26.63;81.92;;
68279;Laerm;55108;51.790;10.960;2023-02-13T01:53:20;62.84;26.51;81.34;;
68279;Laerm;55108;51.790;10.960;2023-02-13T01:55:49;31.01;26.32;44.87;;
68279;Laerm;55108;51.790;10.960;2023-02-13T01:58:17;30.17;26.34;43.01;;
68279;Laerm;55108;51.790;10.960;2023-02-13T02:00:44;29.49;26.11;37.12;;
68279;Laerm;55108;51.790;10.960;2023-02-13T02:03:14;28.58;26.19;41.30;;
68279;Laerm;55108;51.790;10.960;2023-02-13T02:05:41;30.94;26.30;50.74;;
68279;Laerm;55108;51.790;10.960;2023-02-13T02:08:08;53.14;26.18;71.98;;
68279;Laerm;55108;51.790;10.960;2023-02-13T02:10:34;28.48;26.35;41.22;;
68279;Laerm;55108;51.790;10.960;2023-02-13T02:15:29;57.02;26.50;73.22;;
68279;Laerm;55108;51.790;10.960;2023-02-13T02:17:55;30.42;25.99;41.28;;
68279;Laerm;55108;51.790;10.960;2023-02-13T02:20:43;61.82;26.70;79.66;;
68279;Laerm;55108;51.790;10.960;2023-02-13T02:36:17;43.16;26.92;59.21;;
68279;Laerm;55108;51.790;10.960;2023-02-13T02:44:19;30.94;26.17;44.09;;
68279;Laerm;55108;51.790;10.960;2023-02-13T02:46:55;33.38;26.55;47.72;;
68279;Laerm;55108;51.790;10.960;2023-02-13T02:49:41;63.46;27.01;83.89;;
68279;Laerm;55108;51.790;10.960;2023-02-13T02:52:38;56.29;26.43;75.89;;
68279;Laerm;55108;51.790;10.960;2023-02-13T02:55:14;52.26;26.78;71.43;;
68279;Laerm;55108;51.790;10.960;2023-02-13T02:57:45;61.44;26.68;81.75;;
68279;Laerm;55108;51.790;10.960;2023-02-13T03:00:31;33.94;26.72;41.74;;
68279;Laerm;55108;51.790;10.960;2023-02-13T03:03:17;59.90;26.90;80.29;;
68279;Laerm;55108;51.790;10.960;2023-02-13T03:06:03;32.11;26.55;45.55;;
68279;Laerm;55108;51.790;10.960;2023-02-13T03:08:36;60.59;27.07;77.82;;
68279;Laerm;55108;51.790;10.960;2023-02-13T03:11:21;57.48;27.32;73.90;;
68279;Laerm;55108;51.790;10.960;2023-02-13T03:14:06;55.36;27.21;73.32;;
68279;Laerm;55108;51.790;10.960;2023-02-13T03:16:33;34.10;26.80;45.93;;
68279;Laerm;55108;51.790;10.960;2023-02-13T03:19:21;62.18;26.57;81.47;;
68279;Laerm;55108;51.790;10.960;2023-02-13T03:22:16;63.41;26.48;79.12;;
68279;Laerm;55108;51.790;10.960;2023-02-13T03:24:59;62.65;27.67;79.19;;
68279;Laerm;55108;51.790;10.960;2023-02-13T03:27:33;60.94;27.52;79.91;;
68279;Laerm;55108;51.790;10.960;2023-02-13T03:35:36;64.73;27.45;84.87;;
68279;Laerm;55108;51.790;10.960;2023-02-13T03:38:23;55.55;27.62;71.41;;
68279;Laerm;55108;51.790;10.960;2023-02-13T03:40:55;60.61;30.55;79.50;;
68279;Laerm;55108;51.790;10.960;2023-02-13T03:43:44;64.19;29.68;81.48;;
68279;Laerm;55108;51.790;10.960;2023-02-13T03:46:11;57.73;28.83;77.44;;
68279;Laerm;55108;51.790;10.960;2023-02-13T03:48:37;61.78;29.28;80.64;;
68279;Laerm;55108;51.790;10.960;2023-02-13T03:51:43;61.66;28.44;77.56;;
68279;Laerm;55108;51.790;10.960;2023-02-13T03:54:12;62.54;32.08;79.68;;
68279;Laerm;55108;51.790;10.960;2023-02-13T03:56:40;63.70;28.10;84.79;;
68279;Laerm;55108;51.790;10.960;2023-02-13T03:59:26;56.65;28.52;73.41;;
68279;Laerm;55108;51.790;10.960;2023-02-13T04:01:57;55.68;28.74;72.47;;
68279;Laerm;55108;51.790;10.960;2023-02-13T04:04:32;62.92;32.73;80.65;;
68279;Laerm;55108;51.790;10.960;2023-02-13T04:07:02;51.25;29.29;66.75;;
68279;Laerm;55108;51.790;10.960;2023-02-13T04:09:28;62.68;30.25;79.19;;
68279;Laerm;55108;51.790;10.960;2023-02-13T04:12:03;52.39;33.34;69.77;;
68279;Laerm;55108;51.790;10.960;2023-02-13T04:16:56;62.77;30.82;76.64;;
68279;Laerm;55108;51.790;10.960;2023-02-13T04:19:24;67.77;36.17;86.68;;
68279;Laerm;55108;51.790;10.960;2023-02-13T04:21:53;64.71;32.76;77.65;;
68279;Laerm;55108;51.790;10.960;2023-02-13T04:24:20;64.50;34.41;80.65;;
68279;Laerm;55108;51.790;10.960;2023-02-13T04:26:45;63.92;33.98;79.49;;
68279;Laerm;55108;51.790;10.960;2023-02-13T04:29:10;65.34;35.55;81.83;;
68279;Laerm;55108;51.790;10.960;2023-02-13T04:31:35;61.31;31.57;75.28;;
68279;Laerm;55108;51.790;10.960;2023-02-13T04:34:00;63.76;37.74;78.21;;
68279;Laerm;55108;51.790;10.960;2023-02-13T04:36:25;65.65;40.30;83.13;;
68279;Laerm;55108;51.790;10.960;2023-02-13T04:38:51;64.86;37.39;81.55;;
68279;Laerm;55108;51.790;10.960;2023-02-13T04:41:16;66.52;36.84;80.99;;
68279;Laerm;55108;51.790;10.960;2023-02-13T04:43:41;62.90;34.63;79.00;;
68279;Laerm;55108;51.790;10.960;2023-02-13T04:46:06;68.65;39.71;84.82;;
68279;Laerm;55108;51.790;10.960;2023-02-13T04:48:32;66.44;36.36;80.03;;
68279;Laerm;55108;51.790;10.960;2023-02-13T04:50:57;68.39;38.01;86.90;;
68279;Laerm;55108;51.790;10.960;2023-02-13T04:53:22;65.82;42.37;81.88;;
68279;Laerm;55108;51.790;10.960;2023-02-13T04:55:47;66.63;37.75;77.66;;
68279;Laerm;55108;51.790;10.960;2023-02-13T04:58:12;64.88;35.40;78.57;;
68279;Laerm;55108;51.790;10.960;2023-02-13T05:00:37;64.20;34.80;77.12;;
68279;Laerm;55108;51.790;10.960;2023-02-13T05:03:03;66.63;43.82;78.14;;
68279;Laerm;55108;51.790;10.960;2023-02-13T05:05:29;67.62;41.73;84.27;;
68279;Laerm;55108;51.790;10.960;2023-02-13T05:07:54;65.33;38.80;76.18;;
68279;Laerm;55108;51.790;10.960;2023-02-13T05:10:19;64.36;33.50;77.44;;
68279;Laerm;55108;51.790;10.960;2023-02-13T05:12:44;65.04;43.30;76.10;;
68279;Laerm;55108;51.790;10.960;2023-02-13T05:15:09;65.85;43.18;79.42;;
68279;Laerm;55108;51.790;10.960;2023-02-13T05:17:34;67.18;44.25;79.90;;
68279;Laerm;55108;51.790;10.960;2023-02-13T05:20:00;68.18;43.09;82.10;;
68279;Laerm;55108;51.790;10.960;2023-02-13T05:22:25;60.94;36.35;75.05;;
68279;Laerm;55108;51.790;10.960;2023-02-13T05:25:08;67.15;40.36;80.70;;
68279;Laerm;55108;51.790;10.960;2023-02-13T05:27:34;66.53;42.37;80.97;;
68279;Laerm;55108;51.790;10.960;2023-02-13T05:29:59;65.72;40.47;77.13;;
68279;Laerm;55108;51.790;10.960;2023-02-13T05:32:24;63.13;36.82;76.59;;
68279;Laerm;55108;51.790;10.960;2023-02-13T05:34:49;65.63;40.55;78.13;;
68279;Laerm;55108;51.790;10.960;2023-02-13T05:37:14;67.98;45.04;78.50;;
68279;Laerm;55108;51.790;10.960;2023-02-13T05:39:39;65.13;37.08;78.56;;
68279;Laerm;55108;51.790;10.960;2023-02-13T05:42:04;65.11;39.57;76.94;;
68279;Laerm;55108;51.790;10.960;2023-02-13T05:44:30;65.96;47.42;75.02;;
68279;Laerm;55108;51.790;10.960;2023-02-13T05:46:55;65.94;39.78;76.21;;
68279;Laerm;55108;51.790;10.960;2023-02-13T05:49:20;66.14;42.06;75.87;;
68279;Laerm;55108;51.790;10.960;2023-02-13T05:51:46;65.48;37.42;76.72;;
68279;Laerm;55108;51.790;10.960;2023-02-13T05:54:12;64.40;40.24;77.14;;
68279;Laerm;55108;51.790;10.960;2023-02-13T05:56:37;66.90;39.37;80.79;;
68279;Laerm;55108;51.790;10.960;2023-02-13T05:59:02;68.91;48.19;80.40;;
68279;Laerm;55108;51.790;10.960;2023-02-13T06:01:27;62.87;38.55;75.57;;
68279;Laerm;55108;51.790;10.960;2023-02-13T06:03:53;66.81;49.27;79.01;;
68279;Laerm;55108;51.790;10.960;2023-02-13T06:06:18;67.71;42.52;77.81;;
68279;Laerm;55108;51.790;10.960;2023-02-13T06:08:43;66.94;42.35;80.46;;
68279;Laerm;55108;51.790;10.960;2023-02-13T06:11:08;66.73;41.99;77.11;;
68279;Laerm;55108;51.790;10.960;2023-02-13T06:13:33;67.10;41.81;77.05;;
68279;Laerm;55108;51.790;10.960;2023-02-13T06:15:59;66.90;43.12;80.53;;
68279;Laerm;55108;51.790;10.960;2023-02-13T06:18:24;66.81;39.36;77.53;;
68279;Laerm;55108;51.790;10.960;2023-02-13T06:20:49;67.95;42.39;81.41;;
68279;Laerm;55108;51.790;10.960;2023-02-13T06:23:14;65.50;41.79;78.42;;
68279;Laerm;55108;51.790;10.960;2023-02-13T06:25:40;67.44;47.31;77.67;;
68279;Laerm;55108;51.790;10.960;2023-02-13T06:28:05;66.23;45.71;81.66;;
68279;Laerm;55108;51.790;10.960;2023-02-13T06:30:30;67.39;48.24;78.83;;
68279;Laerm;55108;51.790;10.960;2023-02-13T06:32:55;67.34;39.70;80.32;;
68279;Laerm;55108;51.790;10.960;2023-02-13T06:35:20;65.83;39.35;81.19;;
68279;Laerm;55108;51.790;10.960;2023-02-13T06:37:46;66.92;46.57;75.94;;
68279;Laerm;55108;51.790;10.960;2023-02-13T06:40:12;66.44;47.04;78.33;;
68279;Laerm;55108;51.790;10.960;2023-02-13T06:42:38;65.51;44.67;78.44;;
68279;Laerm;55108;51.790;10.960;2023-02-13T06:45:03;65.96;41.49;77.11;;
68279;Laerm;55108;51.790;10.960;2023-02-13T06:47:28;66.59;45.63;77.24;;
68279;Laerm;55108;51.790;10.960;2023-02-13T06:49:54;66.39;43.60;78.83;;
68279;Laerm;55108;51.790;10.960;2023-02-13T06:52:19;67.32;48.20;77.48;;
68279;Laerm;55108;51.790;10.960;2023-02-13T06:54:44;66.52;43.24;76.72;;
68279;Laerm;55108;51.790;10.960;2023-02-13T06:57:09;65.77;38.96;80.33;;
68279;Laerm;55108;51.790;10.960;2023-02-13T06:59:34;69.41;49.48;84.25;;
68279;Laerm;55108;51.790;10.960;2023-02-13T07:01:59;67.95;47.91;81.05;;
68279;Laerm;55108;51.790;10.960;2023-02-13T07:04:25;64.56;38.81;76.39;;
68279;Laerm;55108;51.790;10.960;2023-02-13T07:06:53;67.14;42.04;85.81;;
68279;Laerm;55108;51.790;10.960;2023-02-13T07:09:19;68.92;42.82;80.80;;
68279;Laerm;55108;51.790;10.960;2023-02-13T07:11:44;65.32;37.56;79.35;;
68279;Laerm;55108;51.790;10.960;2023-02-13T07:14:09;67.00;40.08;81.63;;
68279;Laerm;55108;51.790;10.960;2023-02-13T07:16:34;70.08;43.92;81.36;;
68279;Laerm;55108;51.790;10.960;2023-02-13T07:18:59;67.18;43.64;78.23;;
68279;Laerm;55108;51.790;10.960;2023-02-13T07:21:24;63.49;39.77;76.28;;
68279;Laerm;55108;51.790;10.960;2023-02-13T07:23:50;63.45;36.84;73.35;;
68279;Laerm;55108;51.790;10.960;2023-02-13T07:26:15;65.79;36.90;79.24;;
68279;Laerm;55108;51.790;10.960;2023-02-13T07:28:41;65.21;45.11;76.83;;
68279;Laerm;55108;51.790;10.960;2023-02-13T07:31:06;66.87;35.96;77.23;;
68279;Laerm;55108;51.790;10.960;2023-02-13T07:33:32;66.79;38.71;81.44;;
68279;Laerm;55108;51.790;10.960;2023-02-13T07:35:57;68.96;40.68;81.73;;
68279;Laerm;55108;51.790;10.960;2023-02-13T07:38:22;66.76;40.72;75.85;;
68279;Laerm;55108;51.790;10.960;2023-02-13T07:40:47;66.38;43.24;75.49;;
68279;Laerm;55108;51.790;10.960;2023-02-13T07:43:12;64.58;41.61;77.51;;
68279;Laerm;55108;51.790;10.960;2023-02-13T07:45:37;71.42;43.93;80.60;;
68279;Laerm;55108;51.790;10.960;2023-02-13T07:48:02;68.08;47.26;77.85;;
68279;Laerm;55108;51.790;10.960;2023-02-13T07:50:28;68.76;50.57;77.73;;
68279;Laerm;55108;51.790;10.960;2023-02-13T07:52:56;65.58;44.58;78.79;;
68279;Laerm;55108;51.790;10.960;2023-02-13T07:55:22;69.08;45.73;83.72;;
68279;Laerm;55108;51.790;10.960;2023-02-13T07:57:47;68.72;41.74;81.28;;
68279;Laerm;55108;51.790;10.960;2023-02-13T08:00:13;66.69;41.52;81.25;;
68279;Laerm;55108;51.790;10.960;2023-02-13T08:02:38;67.24;45.94;79.37;;
68279;Laerm;55108;51.790;10.960;2023-02-13T08:05:03;65.54;46.59;79.92;;
68279;Laerm;55108;51.790;10.960;2023-02-13T08:07:29;66.45;39.75;79.48;;
68279;Laerm;55108;51.790;10.960;2023-02-13T08:09:54;66.97;47.39;75.85;;
68279;Laerm;55108;51.790;10.960;2023-02-13T08:12:38;64.23;41.78;78.92;;
68279;Laerm;55108;51.790;10.960;2023-02-13T08:15:03;65.18;40.69;75.97;;
68279;Laerm;55108;51.790;10.960;2023-02-13T08:17:29;65.64;45.48;76.11;;
68279;Laerm;55108;51.790;10.960;2023-02-13T08:19:54;69.51;47.47;81.07;;
68279;Laerm;55108;51.790;10.960;2023-02-13T08:22:19;67.61;43.66;79.17;;
68279;Laerm;55108;51.790;10.960;2023-02-13T08:24:45;61.30;42.28;74.61;;
68279;Laerm;55108;51.790;10.960;2023-02-13T08:27:11;67.72;43.89;83.71;;
68279;Laerm;55108;51.790;10.960;2023-02-13T08:29:36;67.57;44.97;78.10;;
68279;Laerm;55108;51.790;10.960;2023-02-13T08:32:01;68.27;42.26;83.87;;
68279;Laerm;55108;51.790;10.960;2023-02-13T08:34:27;67.08;39.86;79.78;;
68279;Laerm;55108;51.790;10.960;2023-02-13T08:36:52;65.40;47.17;78.61;;
68279;Laerm;55108;51.790;10.960;2023-02-13T08:39:17;67.48;47.98;80.02;;
68279;Laerm;55108;51.790;10.960;2023-02-13T08:41:42;69.47;49.29;81.75;;
68279;Laerm;55108;51.790;10.960;2023-02-13T08:44:08;66.06;40.17;79.15;;
68279;Laerm;55108;51.790;10.960;2023-02-13T08:46:33;67.59;41.44;77.24;;
68279;Laerm;55108;51.790;10.960;2023-02-13T08:48:58;70.10;42.20;87.03;;
68279;Laerm;55108;51.790;10.960;2023-02-13T08:51:23;66.33;44.91;76.33;;
68279;Laerm;55108;51.790;10.960;2023-02-13T08:53:48;68.00;42.90;81.85;;
68279;Laerm;55108;51.790;10.960;2023-02-13T08:56:14;69.06;46.34;79.25;;
68279;Laerm;55108;51.790;10.960;2023-02-13T08:58:39;68.60;45.93;81.50;;
68279;Laerm;55108;51.790;10.960;2023-02-13T09:01:05;68.14;46.74;80.50;;
68279;Laerm;55108;51.790;10.960;2023-02-13T09:03:30;66.25;43.37;77.54;;
68279;Laerm;55108;51.790;10.960;2023-02-13T09:05:57;66.96;48.42;78.04;;
68279;Laerm;55108;51.790;10.960;2023-02-13T09:08:22;67.53;47.78;77.25;;
68279;Laerm;55108;51.790;10.960;2023-02-13T09:10:54;68.65;47.74;80.27;;
68279;Laerm;55108;51.790;10.960;2023-02-13T09:13:19;65.42;37.22;78.32;;
68279;Laerm;55108;51.790;10.960;2023-02-13T09:15:44;64.35;40.53;75.97;;
68279;Laerm;55108;51.790;10.960;2023-02-13T09:18:09;68.03;46.06;83.27;;
68279;Laerm;55108;51.790;10.960;2023-02-13T09:20:35;66.92;41.74;78.85;;
68279;Laerm;55108;51.790;10.960;2023-02-13T09:23:00;66.38;43.79;76.25;;
68279;Laerm;55108;51.790;10.960;2023-02-13T09:25:25;69.76;44.46;86.11;;
68279;Laerm;55108;51.790;10.960;2023-02-13T09:27:50;68.23;41.36;84.31;;
68279;Laerm;55108;51.790;10.960;2023-02-13T09:30:16;68.10;39.92;81.60;;
68279;Laerm;55108;51.790;10.960;2023-02-13T09:32:47;67.97;49.37;79.19;;
68279;Laerm;55108;51.790;10.960;2023-02-13T09:35:12;67.32;44.26;76.65;;
68279;Laerm;55108;51.790;10.960;2023-02-13T09:37:38;69.46;47.25;87.21;;
68279;Laerm;55108;51.790;10.960;2023-02-13T09:40:04;65.24;46.27;76.23;;
68279;Laerm;55108;51.790;10.960;2023-02-13T09:42:30;71.54;45.70;88.35;;
68279;Laerm;55108;51.790;10.960;2023-02-13T09:45:00;67.00;41.29;79.33;;
68279;Laerm;55108;51.790;10.960;2023-02-13T09:49:53;69.05;52.01;79.30;;
68279;Laerm;55108;51.790;10.960;2023-02-13T09:52:19;67.61;43.71;80.41;;
68279;Laerm;55108;51.790;10.960;2023-02-13T09:54:45;68.92;44.17;83.40;;
68279;Laerm;55108;51.790;10.960;2023-02-13T09:59:44;66.71;43.02;75.41;;
68279;Laerm;55108;51.790;10.960;2023-02-13T10:04:51;68.45;49.25;83.45;;
68279;Laerm;55108;51.790;10.960;2023-02-13T10:07:27;68.89;44.56;83.97;;
68279;Laerm;55108;51.790;10.960;2023-02-13T10:10:07;67.44;43.69;77.38;;
68279;Laerm;55108;51.790;10.960;2023-02-13T10:15:27;68.56;47.21;81.99;;
68279;Laerm;55108;51.790;10.960;2023-02-13T10:17:58;68.97;47.78;82.63;;
68279;Laerm;55108;51.790;10.960;2023-02-13T10:23:46;66.44;46.51;78.13;;
68279;Laerm;55108;51.790;10.960;2023-02-13T10:28:18;66.85;42.78;77.49;;
68279;Laerm;55108;51.790;10.960;2023-02-13T10:30:49;68.56;41.95;80.67;;
68279;Laerm;55108;51.790;10.960;2023-02-13T10:33:17;65.69;43.53;77.87;;
68279;Laerm;55108;51.790;10.960;2023-02-13T10:38:19;68.10;49.79;77.43;;
68279;Laerm;55108;51.790;10.960;2023-02-13T10:40:47;73.03;45.17;89.57;;
68279;Laerm;55108;51.790;10.960;2023-02-13T10:43:17;66.37;42.98;79.02;;
68279;Laerm;55108;51.790;10.960;2023-02-13T10:48:13;67.75;38.58;78.93;;
68279;Laerm;55108;51.790;10.960;2023-02-13T10:50:56;67.80;44.19;80.38;;
68279;Laerm;55108;51.790;10.960;2023-02-13T10:53:41;67.40;44.13;77.81;;
68279;Laerm;55108;51.790;10.960;2023-02-13T10:58:45;66.02;43.97;78.77;;
68279;Laerm;55108;51.790;10.960;2023-02-13T11:01:16;67.52;47.06;78.26;;
68279;Laerm;55108;51.790;10.960;2023-02-13T11:03:43;67.55;48.06;80.57;;
68279;Laerm;55108;51.790;10.960;2023-02-13T11:06:12;67.43;45.11;82.10;;
68279;Laerm;55108;51.790;10.960;2023-02-13T11:08:39;68.14;47.33;81.12;;
68279;Laerm;55108;51.790;10.960;2023-02-13T11:13:58;68.26;46.36;85.52;;
68279;Laerm;55108;51.790;10.960;2023-02-13T11:16:36;67.07;42.55;80.64;;
68279;Laerm;55108;51.790;10.960;2023-02-13T11:19:02;68.35;41.53;80.73;;
68279;Laerm;55108;51.790;10.960;2023-02-13T11:21:31;65.60;39.99;80.71;;
68279;Laerm;55108;51.790;10.960;2023-02-13T11:23:58;64.90;40.06;80.81;;
68279;Laerm;55108;51.790;10.960;2023-02-13T11:26:26;65.87;43.26;77.03;;
68279;Laerm;55108;51.790;10.960;2023-02-13T11:28:53;66.68;41.09;77.19;;
68279;Laerm;55108;51.790;10.960;2023-02-13T11:31:29;68.78;43.88;81.60;;
68279;Laerm;55108;51.790;10.960;2023-02-13T11:33:55;67.78;42.72;81.08;;
68279;Laerm;55108;51.790;10.960;2023-02-13T11:36:25;66.16;42.43;82.66;;
68279;Laerm;55108;51.790;10.960;2023-02-13T11:38:56;64.90;42.15;80.90;;
68279;Laerm;55108;51.790;10.960;2023-02-13T11:41:21;66.95;45.05;78.98;;
68279;Laerm;55108;51.790;10.960;2023-02-13T11:43:52;69.71;46.74;83.39;;
68279;Laerm;55108;51.790;10.960;2023-02-13T11:46:19;64.60;37.37;76.70;;
68279;Laerm;55108;51.790;10.960;2023-02-13T11:48:55;62.62;36.40;75.25;;
68279;Laerm;55108;51.790;10.960;2023-02-13T11:51:33;67.51;42.58;80.54;;
68279;Laerm;55108;51.790;10.960;2023-02-13T11:53:58;67.62;48.76;77.60;;
68279;Laerm;55108;51.790;10.960;2023-02-13T11:56:25;65.03;42.75;80.08;;
68279;Laerm;55108;51.790;10.960;2023-02-13T11:58:57;66.21;45.00;77.37;;
68279;Laerm;55108;51.790;10.960;2023-02-13T12:01:25;65.15;36.33;76.48;;
68279;Laerm;55108;51.790;10.960;2023-02-13T12:04:00;67.80;40.13;80.50;;
68279;Laerm;55108;51.790;10.960;2023-02-13T12:06:26;66.34;36.69;77.92;;
68279;Laerm;55108;51.790;10.960;2023-02-13T12:08:51;68.21;40.10;82.60;;
68279;Laerm;55108;51.790;10.960;2023-02-13T12:13:50;65.57;42.25;76.67;;
68279;Laerm;55108;51.790;10.960;2023-02-13T12:18:42;68.30;49.73;81.39;;
68279;Laerm;55108;51.790;10.960;2023-02-13T12:21:15;66.90;40.21;79.86;;
68279;Laerm;55108;51.790;10.960;2023-02-13T12:23:56;68.51;43.19;81.70;;
68279;Laerm;55108;51.790;10.960;2023-02-13T12:26:32;71.22;40.51;81.75;;
68279;Laerm;55108;51.790;10.960;2023-02-13T12:31:32;67.28;46.80;76.98;;
68279;Laerm;55108;51.790;10.960;2023-02-13T12:34:24;65.62;40.78;78.66;;
68279;Laerm;55108;51.790;10.960;2023-02-13T12:37:11;65.81;40.91;77.21;;
68279;Laerm;55108;51.790;10.960;2023-02-13T12:39:40;66.63;39.12;76.78;;
68279;Laerm;55108;51.790;10.960;2023-02-13T12:45:14;66.16;47.04;76.20;;
68279;Laerm;55108;51.790;10.960;2023-02-13T12:50:14;66.24;41.20;78.45;;
68279;Laerm;55108;51.790;10.960;2023-02-13T12:52:50;69.00;49.16;88.91;;
68279;Laerm;55108;51.790;10.960;2023-02-13T12:55:30;64.52;38.71;78.09;;
68279;Laerm;55108;51.790;10.960;2023-02-13T13:00:34;70.70;54.86;81.59;;
68279;Laerm;55108;51.790;10.960;2023-02-13T13:08:20;68.64;43.64;84.28;;
68279;Laerm;55108;51.790;10.960;2023-02-13T13:19:06;65.90;43.39;77.15;;
68279;Laerm;55108;51.790;10.960;2023-02-13T13:26:46;66.96;42.94;81.19;;
68279;Laerm;55108;51.790;10.960;2023-02-13T13:29:15;69.03;48.77;83.57;;
68279;Laerm;55108;51.790;10.960;2023-02-13T13:31:43;67.55;38.34;76.96;;
68279;Laerm;55108;51.790;10.960;2023-02-13T13:34:13;66.23;37.50;80.61;;
68279;Laerm;55108;51.790;10.960;2023-02-13T13:36:43;65.99;43.80;78.13;;
68279;Laerm;55108;51.790;10.960;2023-02-13T13:41:47;66.80;47.80;76.22;;
68279;Laerm;55108;51.790;10.960;2023-02-13T13:44:18;69.36;46.62;85.21;;
68279;Laerm;55108;51.790;10.960;2023-02-13T13:46:58;66.66;44.02;75.91;;
68279;Laerm;55108;51.790;10.960;2023-02-13T13:54:58;68.82;42.02;84.05;;
68279;Laerm;55108;51.790;10.960;2023-02-13T13:57:25;70.94;47.99;87.77;;
68279;Laerm;55108;51.790;10.960;2023-02-13T13:59:58;68.24;45.75;79.15;;
68279;Laerm;55108;51.790;10.960;2023-02-13T14:07:33;69.13;41.14;78.32;;
68279;Laerm;55108;51.790;10.960;2023-02-13T14:09:58;70.41;47.44;85.29;;
68279;Laerm;55108;51.790;10.960;2023-02-13T14:14:49;68.90;50.23;77.50;;
68279;Laerm;55108;51.790;10.960;2023-02-13T14:17:16;67.58;39.65;79.21;;
68279;Laerm;55108;51.790;10.960;2023-02-13T14:20:01;69.13;45.15;84.80;;
68279;Laerm;55108;51.790;10.960;2023-02-13T14:22:32;67.30;44.54;75.99;;
68279;Laerm;55108;51.790;10.960;2023-02-13T14:24:59;67.71;51.87;77.32;;
68279;Laerm;55108;51.790;10.960;2023-02-13T14:29:49;69.03;42.96;84.15;;
68279;Laerm;55108;51.790;10.960;2023-02-13T14:32:18;68.29;45.74;79.36;;
68279;Laerm;55108;51.790;10.960;2023-02-13T14:34:50;68.63;52.53;81.49;;
68279;Laerm;55108;51.790;10.960;2023-02-13T14:37:17;67.09;44.11;77.66;;
68279;Laerm;55108;51.790;10.960;2023-02-13T14:42:35;67.37;49.85;77.62;;
68279;Laerm;55108;51.790;10.960;2023-02-13T14:45:00;68.20;49.66;78.40;;
68279;Laerm;55108;51.790;10.960;2023-02-13T14:47:39;66.82;49.28;76.71;;
68279;Laerm;55108;51.790;10.960;2023-02-13T14:50:07;66.71;47.47;76.94;;
68279;Laerm;55108;51.790;10.960;2023-02-13T14:52:39;66.99;48.74;78.44;;
68279;Laerm;55108;51.790;10.960;2023-02-13T14:55:30;66.72;46.91;77.61;;
68279;Laerm;55108;51.790;10.960;2023-02-13T14:57:53;68.45;46.08;82.65;;
68279;Laerm;55108;51.790;10.960;2023-02-13T15:00:23;67.36;50.05;77.93;;
68279;Laerm;55108;51.790;10.960;2023-02-13T15:02:51;68.17;48.39;82.49;;
68279;Laerm;55108;51.790;10.960;2023-02-13T15:05:18;68.75;45.46;81.22;;
68279;Laerm;55108;51.790;10.960;2023-02-13T15:07:45;65.26;46.84;74.59;;
68279;Laerm;55108;51.790;10.960;2023-02-13T15:12:39;68.50;49.04;79.93;;
68279;Laerm;55108;51.790;10.960;2023-02-13T15:15:24;67.82;45.17;77.69;;
68279;Laerm;55108;51.790;10.960;2023-02-13T15:17:50;67.78;48.12;76.57;;
68279;Laerm;55108;51.790;10.960;2023-02-13T15:20:20;67.94;49.53;77.97;;
68279;Laerm;55108;51.790;10.960;2023-02-13T15:22:47;67.18;45.39;76.62;;
68279;Laerm;55108;51.790;10.960;2023-02-13T15:25:21;67.00;45.75;83.28;;
68279;Laerm;55108;51.790;10.960;2023-02-13T15:27:50;68.68;45.48;78.41;;
68279;Laerm;55108;51.790;10.960;2023-02-13T15:30:22;70.85;47.60;77.86;;
68279;Laerm;55108;51.790;10.960;2023-02-13T15:35:24;67.41;44.45;77.10;;